Time;durP1;ratioP1;P1;durP2;ratioP2;P2;SDS_P1;SDS_P2;PMS_P1;PMS_P2;Temp;Humidity;BMP_temperature;BMP_pressure;BME280_temperature;BME280_humidity;BME280_pressure;Samples;Min_cycle;Max_cycle;Signal;HPM_P1;HPM_P2
2023/12/03 00:00:07;;;;;;;4.95;2.63;;;;;;;20.86;40.76;100459.38;4635459;30;20055;-62
2023/12/03 00:02:36;;;;;;;4.95;2.60;;;;;;;20.85;40.83;100464.91;4635905;30;20059;-60
2023/12/03 00:05:05;;;;;;;4.38;2.53;;;;;;;20.83;40.71;100466.91;4631235;30;20048;-63
2023/12/03 00:07:33;;;;;;;4.78;2.88;;;;;;;20.81;40.79;100469.75;4634993;30;20104;-62
2023/12/03 00:10:01;;;;;;;6.18;2.85;;;;;;;20.81;40.83;100475.13;4634880;30;20063;-60
2023/12/03 00:12:29;;;;;;;5.57;2.50;;;;;;;20.79;40.66;100487.03;4637890;30;20058;-61
2023/12/03 00:14:57;;;;;;;3.22;2.17;;;;;;;20.77;40.52;100487.19;4635457;30;20059;-61
2023/12/03 00:17:25;;;;;;;4.30;2.50;;;;;;;20.75;40.42;100508.00;4635414;30;20051;-64
2023/12/03 00:19:53;;;;;;;4.57;2.63;;;;;;;20.73;40.69;100508.16;4635343;30;20055;-64
2023/12/03 00:22:20;;;;;;;4.20;2.22;;;;;;;20.70;40.80;100511.16;4636900;30;20419;-64
2023/12/03 00:24:48;;;;;;;4.43;2.20;;;;;;;20.69;40.65;100506.75;4635288;30;20062;-65
2023/12/03 00:27:15;;;;;;;5.78;2.20;;;;;;;20.67;40.83;100510.59;4634903;30;20062;-64
2023/12/03 00:29:42;;;;;;;4.68;2.70;;;;;;;20.68;40.84;100517.66;4635218;30;20060;-65
2023/12/03 00:32:10;;;;;;;5.90;2.60;;;;;;;20.67;41.02;100511.44;4636533;30;20054;-65
2023/12/03 00:34:37;;;;;;;3.78;2.38;;;;;;;20.67;41.11;100524.91;4635176;30;20059;-65
2023/12/03 00:37:04;;;;;;;5.32;2.35;;;;;;;20.65;41.12;100526.88;4634879;30;20059;-65
2023/12/03 00:39:32;;;;;;;4.05;2.50;;;;;;;20.65;40.95;100534.94;4635325;30;20059;-65
2023/12/03 00:41:59;;;;;;;3.20;2.08;;;;;;;20.62;41.00;100546.00;4650260;30;20077;-65
2023/12/03 00:44:27;;;;;;;3.35;2.33;;;;;;;20.61;40.90;100562.28;4635457;30;20066;-65
2023/12/03 00:46:55;;;;;;;3.78;2.38;;;;;;;20.59;40.94;100562.44;4635022;30;20066;-65
2023/12/03 00:49:22;;;;;;;3.45;2.05;;;;;;;20.58;40.94;100570.63;4634679;30;20059;-65
2023/12/03 00:51:50;;;;;;;3.58;1.88;;;;;;;20.56;41.10;100573.47;4636425;30;20073;-65
2023/12/03 00:54:17;;;;;;;3.35;2.38;;;;;;;20.55;40.72;100571.78;4634991;30;20059;-64
2023/12/03 00:56:45;;;;;;;3.80;2.28;;;;;;;20.53;40.88;100584.53;4635111;30;20051;-61
2023/12/03 00:59:12;;;;;;;3.15;2.05;;;;;;;20.52;40.99;100593.59;4634766;30;20067;-61
2023/12/03 01:01:40;;;;;;;3.97;2.22;;;;;;;20.51;40.81;100599.97;4636578;30;20387;-61
2023/12/03 01:04:07;;;;;;;3.10;2.13;;;;;;;20.49;40.78;100612.69;4635144;30;20062;-61
2023/12/03 01:06:35;;;;;;;3.17;1.63;;;;;;;20.48;40.89;100611.84;4634466;30;20074;-61
2023/12/03 01:09:02;;;;;;;3.40;1.90;;;;;;;20.47;40.91;100611.97;4634489;30;20063;-61
2023/12/03 01:11:29;;;;;;;3.60;2.22;;;;;;;20.45;40.83;100625.53;4637755;30;20055;-61
2023/12/03 01:14:03;;;;;;;4.68;2.38;;;;;;;20.45;40.85;100627.38;4634326;30;20063;-61
2023/12/03 01:16:32;;;;;;;3.33;1.77;;;;;;;20.44;40.72;100636.47;4634892;30;20056;-64
2023/12/03 01:19:00;;;;;;;4.38;2.10;;;;;;;20.44;40.75;100639.16;4635302;30;20059;-64
2023/12/03 01:21:28;;;;;;;3.60;2.33;;;;;;;20.42;40.81;100635.78;4637133;30;20053;-64
2023/12/03 01:23:55;;;;;;;2.70;1.55;;;;;;;20.40;40.73;100643.97;4647570;30;20058;-64
2023/12/03 01:26:22;;;;;;;3.05;1.83;;;;;;;20.40;40.68;100652.03;4634889;30;20048;-64
2023/12/03 01:28:52;;;;;;;2.60;1.92;;;;;;;20.39;40.77;100669.16;4635514;30;20068;-64
2023/12/03 01:31:20;;;;;;;3.53;1.80;;;;;;;20.38;40.60;100670.16;4636275;30;20059;-64
2023/12/03 01:33:47;;;;;;;2.92;1.80;;;;;;;20.36;40.80;100680.19;4634678;30;20055;-64
2023/12/03 01:36:14;;;;;;;3.58;1.77;;;;;;;20.36;40.64;100682.03;4634230;30;20060;-64
2023/12/03 01:38:42;;;;;;;3.30;1.80;;;;;;;20.36;40.62;100690.09;4635301;30;20456;-64
2023/12/03 01:41:09;;;;;;;5.95;2.45;;;;;;;20.34;40.52;100698.31;4636029;30;20426;-64
2023/12/03 01:43:54;;;;;;;2.88;1.50;;;;;;;20.33;40.72;100707.34;4634649;30;20062;-64
2023/12/03 01:46:21;;;;;;;3.40;1.95;;;;;;;20.32;40.65;100711.03;4634601;30;20059;-61
2023/12/03 01:48:50;;;;;;;3.25;1.73;;;;;;;20.32;40.73;100715.56;4637543;30;20066;-61
2023/12/03 01:51:18;;;;;;;2.55;1.60;;;;;;;20.31;40.62;100730.00;4634684;30;20059;-61
2023/12/03 01:53:48;;;;;;;2.95;2.10;;;;;;;20.30;40.60;100722.94;4634451;30;20522;-61
2023/12/03 01:56:16;;;;;;;3.92;1.75;;;;;;;20.30;40.61;100736.38;4634928;30;20062;-64
2023/12/03 01:58:44;;;;;;;2.80;1.45;;;;;;;20.28;40.65;100736.50;4637354;30;20062;-65
2023/12/03 02:01:11;;;;;;;3.63;2.05;;;;;;;20.29;40.56;100748.09;4634393;30;20063;-64
2023/12/03 02:03:38;;;;;;;3.75;2.15;;;;;;;20.26;40.58;100743.88;4630675;30;20062;-64
2023/12/03 02:06:09;;;;;;;2.97;1.95;;;;;;;20.27;40.79;100750.94;4637232;30;20063;-64
2023/12/03 02:08:37;;;;;;;3.47;2.10;;;;;;;20.25;40.81;100759.16;4639971;30;20063;-64
2023/12/03 02:11:06;;;;;;;2.83;1.48;;;;;;;20.25;40.80;100750.22;4637700;30;20059;-64
2023/12/03 02:13:38;;;;;;;3.83;2.00;;;;;;;20.24;40.87;100762.81;4637469;30;20077;-64
2023/12/03 02:16:06;;;;;;;2.72;1.73;;;;;;;20.24;40.90;100773.56;4638971;30;20488;-61
2023/12/03 02:18:33;;;;;;;2.60;1.40;;;;;;;20.23;40.92;100776.41;4639059;30;20047;-61
2023/12/03 02:21:01;;;;;;;2.30;1.30;;;;;;;20.22;40.90;100780.94;4637254;30;20062;-61
2023/12/03 02:23:30;;;;;;;3.38;2.20;;;;;;;20.21;41.01;100779.22;4637426;30;20527;-61
2023/12/03 02:25:58;;;;;;;5.95;1.35;;;;;;;20.20;40.95;100782.91;4638516;30;20059;-64
2023/12/03 02:28:25;;;;;;;2.35;1.25;;;;;;;20.18;41.06;100790.25;4651160;30;20054;-64
2023/12/03 02:30:52;;;;;;;3.78;1.60;;;;;;;20.19;41.03;100797.34;4636868;30;20063;-64
2023/12/03 02:33:20;;;;;;;2.70;1.67;;;;;;;20.18;41.39;100797.47;4637234;30;20066;-64
2023/12/03 02:35:48;;;;;;;2.58;1.35;;;;;;;20.16;41.06;100805.66;4638617;30;20056;-64
2023/12/03 02:38:15;;;;;;;2.28;1.48;;;;;;;20.15;41.17;100809.34;4638328;30;20062;-64
2023/12/03 02:40:43;;;;;;;4.05;1.30;;;;;;;20.15;41.10;100822.78;4637122;30;20063;-64
2023/12/03 02:43:11;;;;;;;2.63;1.25;;;;;;;20.13;41.19;100824.75;4637252;30;20058;-64
2023/12/03 02:45:38;;;;;;;2.38;1.25;;;;;;;20.14;41.15;100834.53;4638676;30;20434;-64
2023/12/03 02:48:06;;;;;;;2.80;1.63;;;;;;;20.14;41.18;100842.59;4638066;30;20066;-64
2023/12/03 02:50:33;;;;;;;3.25;1.40;;;;;;;20.13;41.16;100840.03;4636765;30;20063;-64
2023/12/03 02:53:01;;;;;;;2.45;1.23;;;;;;;20.12;41.19;100841.88;4637141;30;20059;-64
2023/12/03 02:55:29;;;;;;;2.70;1.33;;;;;;;20.11;41.14;100848.25;4638746;30;20066;-63
2023/12/03 02:57:56;;;;;;;2.13;1.10;;;;;;;20.11;41.44;100861.69;4638022;30;20046;-64
2023/12/03 03:00:24;;;;;;;2.28;1.13;;;;;;;20.10;41.29;100864.50;4636765;30;20051;-64
2023/12/03 03:02:54;;;;;;;2.92;1.55;;;;;;;20.10;41.34;100867.19;4648763;30;20071;-64
2023/12/03 03:05:21;;;;;;;3.05;1.35;;;;;;;20.08;41.03;100866.47;4638133;30;20056;-62
2023/12/03 03:07:49;;;;;;;3.33;1.17;;;;;;;20.09;41.53;100873.53;4637112;30;20419;-61
2023/12/03 03:10:16;;;;;;;2.83;1.20;;;;;;;20.07;41.49;100881.75;4636245;30;20062;-62
2023/12/03 03:12:43;;;;;;;2.10;1.35;;;;;;;20.08;41.50;100882.59;4636333;30;20399;-62
2023/12/03 03:15:11;;;;;;;2.60;1.20;;;;;;;20.07;41.42;100889.81;4638317;30;20062;-61
2023/12/03 03:17:38;;;;;;;3.17;1.30;;;;;;;20.06;41.26;100898.03;4637327;30;20051;-65
2023/12/03 03:20:06;;;;;;;2.22;1.27;;;;;;;20.06;41.46;100895.34;4636110;30;20530;-65
2023/12/03 03:22:34;;;;;;;1.75;0.90;;;;;;;20.07;41.45;100897.03;4636183;30;20063;-65
2023/12/03 03:25:03;;;;;;;2.45;1.35;;;;;;;20.06;41.49;100906.94;4637839;30;20069;-65
2023/12/03 03:27:30;;;;;;;2.40;1.20;;;;;;;20.06;41.44;100914.16;4637139;30;20059;-65
2023/12/03 03:29:58;;;;;;;2.58;1.35;;;;;;;20.06;41.58;100920.38;4636376;30;20051;-65
2023/12/03 03:32:25;;;;;;;2.13;1.08;;;;;;;20.05;41.58;100915.09;4636272;30;20059;-65
2023/12/03 03:34:53;;;;;;;2.45;1.35;;;;;;;20.04;41.41;100916.94;4638366;30;20511;-65
2023/12/03 03:37:20;;;;;;;2.83;1.13;;;;;;;20.04;41.64;100916.94;4636767;30;20051;-65
2023/12/03 03:39:47;;;;;;;2.05;1.13;;;;;;;20.03;41.62;100920.63;4635858;30;20055;-65
2023/12/03 03:42:15;;;;;;;2.00;1.00;;;;;;;20.02;41.78;100927.00;4636109;30;20063;-65
2023/12/03 03:44:42;;;;;;;2.58;1.27;;;;;;;20.04;41.71;100935.75;4637922;30;20488;-65
2023/12/03 03:47:13;;;;;;;2.10;1.23;;;;;;;20.03;41.57;100933.22;4636977;30;20074;-61
2023/12/03 03:49:41;;;;;;;2.20;1.20;;;;;;;20.02;41.62;100940.44;4635955;30;20052;-64
2023/12/03 03:52:08;;;;;;;2.40;1.23;;;;;;;20.01;41.64;100941.41;4636150;30;20067;-65
2023/12/03 03:54:41;;;;;;;2.38;1.10;;;;;;;20.00;41.51;100943.22;4638164;30;20059;-65
2023/12/03 03:57:08;;;;;;;2.35;1.05;;;;;;;20.01;41.67;100952.16;4631944;30;20062;-62
2023/12/03 03:59:36;;;;;;;2.88;1.25;;;;;;;20.00;41.49;100955.81;4635552;30;20150;-61
2023/12/03 04:02:04;;;;;;;3.08;1.10;;;;;;;20.00;41.80;100963.88;4635866;30;20060;-62
2023/12/03 04:04:31;;;;;;;3.28;1.20;;;;;;;19.98;41.82;100972.09;4639166;30;20085;-61
2023/12/03 04:06:59;;;;;;;2.53;1.42;;;;;;;19.99;41.92;100971.09;4635369;30;20427;-59
2023/12/03 04:09:27;;;;;;;2.45;1.00;;;;;;;20.02;42.00;100974.53;4635377;30;20059;-61
2023/12/03 04:11:54;;;;;;;2.40;0.90;;;;;;;20.02;41.92;100974.53;4635692;30;20059;-61
2023/12/03 04:14:21;;;;;;;3.13;1.25;;;;;;;20.01;42.04;100973.63;4638753;30;20055;-61
2023/12/03 04:16:49;;;;;;;3.13;1.13;;;;;;;20.00;42.17;100977.31;4636102;30;20062;-62
2023/12/03 04:19:16;;;;;;;2.55;1.25;;;;;;;20.00;42.10;100988.91;4635472;30;20048;-60
2023/12/03 04:21:44;;;;;;;2.75;1.27;;;;;;;20.01;42.23;100992.44;4635607;30;20055;-60
2023/12/03 04:24:11;;;;;;;2.38;1.10;;;;;;;19.99;42.06;100994.44;4638027;30;20054;-60
2023/12/03 04:26:42;;;;;;;1.83;1.02;;;;;;;19.98;42.28;100990.91;4635618;30;20058;-61
2023/12/03 04:29:10;;;;;;;5.50;1.10;;;;;;;19.97;42.25;101002.66;4635102;30;20055;-61
2023/12/03 04:31:37;;;;;;;2.97;1.23;;;;;;;19.96;41.90;101005.44;4635124;30;20059;-61
2023/12/03 04:34:05;;;;;;;2.13;1.30;;;;;;;19.95;42.15;101009.13;4636539;30;20074;-61
2023/12/03 04:36:33;;;;;;;2.05;0.80;;;;;;;19.94;42.19;101015.50;4635026;30;20067;-61
2023/12/03 04:39:01;;;;;;;2.35;0.95;;;;;;;19.93;42.20;101021.81;4635542;30;20424;-61
2023/12/03 04:41:35;;;;;;;4.13;1.10;;;;;;;19.92;42.01;101022.81;4635356;30;20059;-61
2023/12/03 04:44:03;;;;;;;2.88;1.40;;;;;;;19.90;42.08;101030.16;4636997;30;20059;-61
2023/12/03 04:46:30;;;;;;;2.28;1.10;;;;;;;19.88;42.10;101026.75;4634189;30;20062;-60
2023/12/03 04:48:57;;;;;;;2.60;1.00;;;;;;;19.88;42.01;101032.13;4634994;30;20051;-60
2023/12/03 04:51:25;;;;;;;2.33;1.20;;;;;;;19.87;41.94;101047.38;4635694;30;20059;-60
2023/12/03 04:53:53;;;;;;;2.75;1.58;;;;;;;19.85;41.95;101051.19;4636900;30;20507;-60
2023/12/03 04:56:20;;;;;;;3.88;1.58;;;;;;;19.86;41.98;101060.97;4634988;30;20084;-61
2023/12/03 04:58:47;;;;;;;3.00;1.63;;;;;;;19.83;42.06;101064.75;4634724;30;20051;-62
2023/12/03 05:01:17;;;;;;;2.78;1.40;;;;;;;19.84;41.73;101069.13;4635330;30;20066;-62
2023/12/03 05:03:45;;;;;;;3.20;1.50;;;;;;;19.83;41.95;101074.66;4634934;30;20054;-62
2023/12/03 05:06:13;;;;;;;3.05;1.60;;;;;;;19.82;41.75;101081.84;4635142;30;20397;-61
2023/12/03 05:08:41;;;;;;;4.50;1.40;;;;;;;19.81;41.99;101081.97;4634538;30;20062;-62
2023/12/03 05:11:08;;;;;;;2.40;1.42;;;;;;;19.81;41.76;101090.03;4636136;30;20052;-62
2023/12/03 05:13:36;;;;;;;2.50;1.45;;;;;;;19.81;41.94;101103.47;4636119;30;20068;-62
2023/12/03 05:16:06;;;;;;;3.47;1.50;;;;;;;19.78;41.90;101101.91;4634841;30;20420;-60
2023/12/03 05:18:34;;;;;;;4.53;1.40;;;;;;;19.77;41.89;101102.88;4634785;30;20048;-60
2023/12/03 05:21:02;;;;;;;2.38;1.30;;;;;;;19.76;41.84;101104.69;4636292;30;20082;-60
2023/12/03 05:23:30;;;;;;;2.35;1.40;;;;;;;19.76;41.86;101107.38;4648172;30;20055;-60
2023/12/03 05:25:57;;;;;;;2.30;1.20;;;;;;;19.75;42.01;101104.84;4634642;30;20510;-60
2023/12/03 05:28:24;;;;;;;2.45;1.38;;;;;;;19.76;42.04;101110.06;4634754;30;20051;-59
2023/12/03 05:30:52;;;;;;;3.10;1.50;;;;;;;19.79;41.93;101113.50;4636408;30;20060;-59
2023/12/03 05:33:19;;;;;;;3.15;1.48;;;;;;;19.80;41.68;101124.09;4635682;30;20402;-60
2023/12/03 05:35:47;;;;;;;3.08;1.50;;;;;;;19.81;41.78;101122.25;4634548;30;20056;-60
2023/12/03 05:38:14;;;;;;;3.30;1.40;;;;;;;19.80;41.93;101123.25;4637478;30;20059;-61
2023/12/03 05:40:42;;;;;;;2.40;1.42;;;;;;;19.79;41.71;101137.69;4639713;30;20062;-60
2023/12/03 05:43:09;;;;;;;4.45;1.67;;;;;;;19.79;41.75;101143.03;4639115;30;20058;-60
2023/12/03 05:45:37;;;;;;;2.80;1.45;;;;;;;19.77;41.89;101143.19;4637644;30;20070;-61
2023/12/03 05:48:04;;;;;;;3.72;1.80;;;;;;;19.75;41.89;101159.41;4637706;30;20063;-60
2023/12/03 05:50:32;;;;;;;2.70;1.40;;;;;;;19.74;41.84;101165.78;4653826;30;20063;-60
2023/12/03 05:53:00;;;;;;;2.53;1.40;;;;;;;19.75;41.94;101175.53;4639202;30;20059;-60
2023/12/03 05:55:27;;;;;;;3.58;1.73;;;;;;;19.72;41.76;101167.72;4637845;30;20059;-60
2023/12/03 05:57:54;;;;;;;4.30;1.90;;;;;;;19.73;41.72;101182.88;4637881;30;20055;-62
2023/12/03 06:00:22;;;;;;;3.13;1.70;;;;;;;19.73;41.67;101187.41;4639448;30;20427;-62
2023/12/03 06:02:49;;;;;;;3.00;1.40;;;;;;;19.70;41.79;101188.50;4630969;30;20055;-62
2023/12/03 06:05:17;;;;;;;2.55;1.38;;;;;;;19.70;41.85;101193.88;4640088;30;20054;-62
2023/12/03 06:07:45;;;;;;;2.78;1.50;;;;;;;19.70;41.59;101196.56;4637541;30;20066;-60
2023/12/03 06:10:12;;;;;;;2.75;1.38;;;;;;;19.69;41.71;101199.38;4639062;30;20059;-60
2023/12/03 06:12:40;;;;;;;2.53;1.20;;;;;;;19.68;41.68;101201.19;4638541;30;20066;-60
2023/12/03 06:15:09;;;;;;;3.80;1.27;;;;;;;19.68;41.81;101200.34;4637600;30;20059;-60
2023/12/03 06:17:36;;;;;;;3.55;1.30;;;;;;;19.68;41.73;101205.69;4637589;30;20075;-60
2023/12/03 06:20:04;;;;;;;2.50;1.30;;;;;;;19.66;41.91;101211.22;4639179;30;20051;-61
2023/12/03 06:22:31;;;;;;;3.50;1.63;;;;;;;19.65;41.99;101214.88;4638137;30;20062;-62
2023/12/03 06:24:58;;;;;;;2.90;1.48;;;;;;;19.65;42.05;101227.47;4637618;30;20051;-61
2023/12/03 06:27:26;;;;;;;2.95;1.35;;;;;;;19.65;42.00;101243.56;4637528;30;20423;-61
2023/12/03 06:29:53;;;;;;;3.15;1.40;;;;;;;19.65;41.92;101244.44;4639193;30;20051;-62
2023/12/03 06:32:20;;;;;;;2.50;1.40;;;;;;;19.65;42.05;101254.31;4638034;30;20495;-62
2023/12/03 06:34:48;;;;;;;2.42;1.20;;;;;;;19.63;41.79;101262.47;4637272;30;20067;-62
2023/12/03 06:37:15;;;;;;;3.50;1.42;;;;;;;19.63;41.82;101267.84;4637195;30;20063;-60
2023/12/03 06:39:42;;;;;;;3.10;1.45;;;;;;;19.62;42.00;101271.53;4638852;30;20058;-60
2023/12/03 06:42:10;;;;;;;3.58;1.70;;;;;;;19.62;41.95;101268.84;4637901;30;20055;-60
2023/12/03 06:44:38;;;;;;;2.55;1.58;;;;;;;19.62;42.26;101282.28;4637065;30;20066;-60
2023/12/03 06:47:11;;;;;;;3.67;1.50;;;;;;;19.60;41.99;101281.50;4636906;30;20067;-60
2023/12/03 06:49:41;;;;;;;2.58;1.48;;;;;;;19.61;42.14;101287.75;4638664;30;20058;-60
2023/12/03 06:52:08;;;;;;;2.78;1.40;;;;;;;19.59;42.04;101290.53;4636649;30;20063;-60
2023/12/03 06:54:36;;;;;;;2.83;1.30;;;;;;;19.58;41.88;101296.88;4636685;30;20073;-60
2023/12/03 06:57:03;;;;;;;2.05;1.10;;;;;;;19.59;42.12;101306.66;4637007;30;20055;-60
2023/12/03 06:59:31;;;;;;;3.97;1.30;;;;;;;19.59;41.83;101317.38;4639355;30;20050;-60
2023/12/03 07:01:58;;;;;;;2.70;1.60;;;;;;;19.58;41.94;101313.00;4637181;30;20064;-60
2023/12/03 07:04:25;;;;;;;2.85;1.30;;;;;;;19.57;41.93;101316.66;4636386;30;20066;-60
2023/12/03 07:06:53;;;;;;;2.97;1.10;;;;;;;19.57;42.00;101329.22;4636634;30;20404;-61
2023/12/03 07:09:21;;;;;;;2.58;1.38;;;;;;;19.56;41.94;101324.84;4639435;30;20055;-62
2023/12/03 07:12:07;;;;;;;3.20;1.63;;;;;;;19.55;41.90;101337.41;4638553;30;20063;-62
2023/12/03 07:14:34;;;;;;;2.10;1.23;;;;;;;19.55;42.17;101337.41;4636717;30;20412;-62
2023/12/03 07:17:02;;;;;;;3.03;1.30;;;;;;;19.55;41.98;101339.25;4637860;30;20047;-61
2023/12/03 07:19:29;;;;;;;2.65;1.20;;;;;;;19.53;42.12;101342.06;4637636;30;20051;-62
2023/12/03 07:21:57;;;;;;;2.13;1.20;;;;;;;19.52;41.94;101343.88;4636248;30;20062;-62
2023/12/03 07:24:24;;;;;;;3.10;1.60;;;;;;;19.52;42.02;101349.22;4636283;30;20055;-62
2023/12/03 07:26:52;;;;;;;2.42;1.17;;;;;;;19.52;42.02;101361.81;4637999;30;20068;-60
2023/12/03 07:29:19;;;;;;;2.10;1.00;;;;;;;19.52;41.99;101368.03;4637543;30;20058;-60
2023/12/03 07:31:47;;;;;;;2.72;1.15;;;;;;;19.51;42.06;101365.47;4636142;30;20063;-60
2023/12/03 07:34:15;;;;;;;2.20;1.13;;;;;;;19.52;42.00;101378.78;4636089;30;20060;-60
2023/12/03 07:36:42;;;;;;;2.35;1.27;;;;;;;19.50;41.97;101380.75;4637550;30;20070;-60
2023/12/03 07:39:10;;;;;;;2.53;1.40;;;;;;;19.50;42.09;101385.25;4637241;30;20055;-60
2023/12/03 07:41:39;;;;;;;2.63;1.20;;;;;;;19.49;42.18;101392.47;4636007;30;20051;-60
2023/12/03 07:44:06;;;;;;;2.20;1.27;;;;;;;19.48;42.18;101400.63;4636290;30;20052;-60
2023/12/03 07:46:34;;;;;;;3.28;1.30;;;;;;;19.48;42.06;101398.78;4638125;30;20070;-61
2023/12/03 07:49:01;;;;;;;2.10;1.20;;;;;;;19.48;42.19;101406.84;4636943;30;20058;-61
2023/12/03 07:51:30;;;;;;;2.65;1.30;;;;;;;19.50;42.06;101417.47;4648707;30;20052;-62
2023/12/03 07:53:58;;;;;;;4.00;1.40;;;;;;;19.49;42.04;101426.53;4635983;30;20401;-62
2023/12/03 07:56:39;;;;;;;2.20;1.20;;;;;;;19.49;41.98;101430.06;4637712;30;20559;-60
2023/12/03 07:59:07;;;;;;;2.20;1.30;;;;;;;19.50;41.95;101433.59;4631827;30;20060;-61
2023/12/03 08:01:35;;;;;;;3.78;1.70;;;;;;;19.49;41.87;101437.28;4635453;30;20408;-62
2023/12/03 08:04:03;;;;;;;2.10;1.40;;;;;;;19.49;41.87;101448.84;4635798;30;20504;-61
2023/12/03 08:06:31;;;;;;;3.65;1.63;;;;;;;19.49;41.68;101450.69;4638058;30;20057;-62
2023/12/03 08:08:59;;;;;;;2.85;1.23;;;;;;;19.50;41.67;101455.09;4635452;30;20055;-62
2023/12/03 08:11:27;;;;;;;2.47;1.30;;;;;;;19.48;41.76;101454.31;4629354;30;20063;-62
2023/12/03 08:13:54;;;;;;;2.20;1.42;;;;;;;19.49;41.77;101456.06;4635883;30;20062;-62
2023/12/03 08:16:22;;;;;;;2.50;1.38;;;;;;;19.48;41.59;101471.28;4638001;30;20055;-60
2023/12/03 08:18:49;;;;;;;3.67;1.45;;;;;;;19.48;41.81;101471.28;4635306;30;20055;-60
2023/12/03 08:21:17;;;;;;;2.85;1.35;;;;;;;19.47;41.81;101471.41;4635345;30;20066;-60
2023/12/03 08:23:44;;;;;;;4.25;1.50;;;;;;;19.48;41.83;101467.75;4635572;30;20419;-60
2023/12/03 08:26:12;;;;;;;3.78;1.40;;;;;;;19.47;41.89;101476.78;4637559;30;20055;-61
2023/12/03 08:28:39;;;;;;;2.83;1.40;;;;;;;19.47;41.76;101487.53;4635248;30;20063;-61
2023/12/03 08:31:07;;;;;;;3.10;1.25;;;;;;;19.46;41.77;101486.69;4641728;30;20063;-62
2023/12/03 08:33:35;;;;;;;2.92;1.40;;;;;;;19.46;41.87;101486.69;4635455;30;20051;-60
2023/12/03 08:36:02;;;;;;;2.28;1.45;;;;;;;19.46;41.78;101486.69;4637183;30;20126;-60
2023/12/03 08:38:30;;;;;;;2.78;1.40;;;;;;;19.45;41.69;101493.03;4634651;30;20067;-60
2023/12/03 08:40:57;;;;;;;3.45;1.55;;;;;;;19.46;41.64;101492.06;4635069;30;20078;-60
2023/12/03 08:43:24;;;;;;;2.70;1.30;;;;;;;19.46;41.68;101488.50;4635259;30;20059;-60
2023/12/03 08:45:52;;;;;;;3.15;1.73;;;;;;;19.47;41.70;101498.28;4637373;30;20055;-61
2023/12/03 08:48:19;;;;;;;3.65;1.52;;;;;;;19.45;41.59;101498.41;4635116;30;20056;-61
2023/12/03 08:50:47;;;;;;;2.75;1.40;;;;;;;19.46;41.64;101496.56;4635169;30;20047;-62
2023/12/03 08:53:14;;;;;;;2.20;1.30;;;;;;;19.45;41.61;101498.41;4635472;30;20416;-62
2023/12/03 08:55:42;;;;;;;2.55;1.30;;;;;;;19.46;41.51;101499.25;4637283;30;20050;-61
2023/12/03 08:58:09;;;;;;;2.78;1.40;;;;;;;19.44;41.67;101503.88;4634882;30;20051;-60
2023/12/03 09:00:37;;;;;;;2.78;1.30;;;;;;;19.45;41.60;101505.59;4635044;30;20058;-60
2023/12/03 09:03:05;;;;;;;2.53;1.35;;;;;;;19.46;41.53;101507.31;4635415;30;20055;-60
2023/12/03 09:05:32;;;;;;;2.40;1.10;;;;;;;19.46;41.74;101510.00;4637400;30;20054;-61
2023/12/03 09:08:00;;;;;;;3.30;1.55;;;;;;;19.46;41.80;101513.53;4634874;30;20051;-59
2023/12/03 09:10:27;;;;;;;2.53;1.40;;;;;;;19.48;41.71;101522.31;4647421;30;20086;-60
2023/12/03 09:12:54;;;;;;;2.60;1.27;;;;;;;19.48;41.79;101519.63;4635131;30;20427;-61
2023/12/03 09:15:22;;;;;;;3.97;1.55;;;;;;;19.50;41.88;101531.13;4637167;30;20357;-60
2023/12/03 09:17:49;;;;;;;2.83;1.38;;;;;;;19.50;41.70;101528.44;4634666;30;20055;-59
2023/12/03 09:20:17;;;;;;;3.33;1.20;;;;;;;19.50;41.75;101531.13;4634936;30;20055;-59
2023/12/03 09:22:44;;;;;;;2.28;1.15;;;;;;;19.50;41.78;101530.28;4634949;30;20062;-60
2023/12/03 09:25:12;;;;;;;3.22;1.67;;;;;;;19.49;41.74;101533.94;4637567;30;20070;-60
2023/12/03 09:27:39;;;;;;;3.05;1.40;;;;;;;19.49;41.82;101534.78;4634698;30;20058;-60
2023/12/03 09:30:07;;;;;;;2.35;1.27;;;;;;;19.49;41.73;101533.94;4628437;30;20415;-59
2023/12/03 09:32:34;;;;;;;3.00;1.38;;;;;;;19.49;41.64;101550.06;4634989;30;20063;-59
2023/12/03 09:35:01;;;;;;;2.60;1.23;;;;;;;19.48;41.55;101548.31;4637069;30;20072;-60
2023/12/03 09:37:29;;;;;;;3.22;1.70;;;;;;;19.47;41.22;101549.31;4634699;30;20068;-59
2023/12/03 09:39:59;;;;;;;2.92;1.58;;;;;;;19.32;40.21;101556.66;4641077;30;20063;-59
2023/12/03 09:42:27;;;;;;;2.28;1.50;;;;;;;19.17;39.58;101557.81;4635103;30;20060;-59
2023/12/03 09:45:01;;;;;;;2.70;1.50;;;;;;;19.02;39.41;101557.97;4636317;30;20066;-59
2023/12/03 09:47:33;;;;;;;4.25;1.95;;;;;;;18.86;39.02;101561.88;4634332;30;20132;-67
2023/12/03 09:50:02;;;;;;;2.92;1.98;;;;;;;18.73;39.02;101572.63;4634714;30;20059;-60
2023/12/03 09:52:32;;;;;;;3.30;1.77;;;;;;;18.61;39.19;101571.66;4636265;30;20063;-60
2023/12/03 09:55:00;;;;;;;2.25;1.40;;;;;;;18.52;39.31;101569.63;4635072;30;20059;-60
2023/12/03 09:57:29;;;;;;;2.40;1.20;;;;;;;18.46;39.32;101570.06;4634341;30;20514;-57
2023/12/03 09:59:58;;;;;;;2.45;1.65;;;;;;;18.40;39.30;101575.84;4634585;30;20072;-57
2023/12/03 10:02:28;;;;;;;3.85;1.60;;;;;;;18.32;39.31;101576.41;4637154;30;20055;-57
2023/12/03 10:04:56;;;;;;;2.92;1.83;;;;;;;18.25;39.10;101581.31;4630918;30;20153;-55
2023/12/03 10:07:28;;;;;;;2.83;1.70;;;;;;;18.16;38.92;101583.78;4634543;30;20055;-59
2023/12/03 10:10:00;;;;;;;2.60;1.55;;;;;;;18.09;39.14;101587.84;4634353;30;20086;-59
2023/12/03 10:12:44;;;;;;;2.33;1.42;;;;;;;18.14;39.48;101601.78;4636365;30;20059;-60
2023/12/03 10:15:12;;;;;;;2.58;1.55;;;;;;;18.25;39.87;101597.38;4634452;30;20076;-60
2023/12/03 10:17:40;;;;;;;1.80;1.10;;;;;;;18.35;40.19;101594.94;4634306;30;20062;-61
2023/12/03 10:20:27;;;;;;;1.92;1.10;;;;;;;18.48;40.52;101595.81;4637355;30;20066;-61
2023/12/03 10:23:02;;;;;;;3.08;1.25;;;;;;;18.58;40.60;101596.00;4633410;30;20063;-61
2023/12/03 10:25:31;;;;;;;2.00;1.00;;;;;;;18.64;40.67;101595.59;4637438;30;20062;-60
2023/12/03 10:28:04;;;;;;;2.50;1.23;;;;;;;18.71;40.58;101591.50;4640094;30;20495;-60
2023/12/03 10:30:33;;;;;;;2.20;1.10;;;;;;;18.76;40.80;101594.75;4633932;30;20519;-60
2023/12/03 10:33:04;;;;;;;2.80;1.10;;;;;;;18.81;40.82;101588.19;4631005;30;20055;-61
2023/12/03 10:35:36;;;;;;;4.00;1.45;;;;;;;18.86;40.80;101586.88;4638125;30;20056;-60
2023/12/03 10:38:10;;;;;;;1.88;0.98;;;;;;;18.89;40.74;101583.13;4638420;30;20070;-60
2023/12/03 10:40:38;;;;;;;2.28;1.25;;;;;;;18.92;40.66;101589.13;4636866;30;20055;-60
2023/12/03 10:43:11;;;;;;;4.05;1.20;;;;;;;18.95;40.73;101579.97;4630705;30;20074;-60
2023/12/03 10:45:41;;;;;;;2.33;1.35;;;;;;;18.96;40.76;101579.91;4639025;30;20070;-60
2023/12/03 10:48:11;;;;;;;2.65;1.38;;;;;;;18.99;40.70;101585.00;4632918;30;20051;-60
2023/12/03 10:50:45;;;;;;;1.63;0.82;;;;;;;19.00;40.72;101589.44;4637045;30;20055;-60
2023/12/03 10:53:17;;;;;;;2.42;1.40;;;;;;;19.00;40.02;101581.38;4637848;30;20500;-60
2023/12/03 10:55:48;;;;;;;3.70;1.63;;;;;;;19.01;40.16;101574.19;4638797;30;20062;-60
2023/12/03 10:58:19;;;;;;;2.33;1.38;;;;;;;19.02;40.40;101575.91;4636899;30;20051;-60
2023/12/03 11:00:59;;;;;;;2.30;1.25;;;;;;;19.06;40.75;101584.59;4637176;30;20047;-59
2023/12/03 11:03:38;;;;;;;2.08;1.17;;;;;;;19.06;40.99;101573.84;4638500;30;20055;-59
2023/12/03 11:06:12;;;;;;;3.58;1.65;;;;;;;19.09;41.19;101574.47;4636804;30;20059;-57
2023/12/03 11:08:44;;;;;;;3.70;1.23;;;;;;;19.13;41.17;101570.59;4636773;30;20068;-59
2023/12/03 11:11:14;;;;;;;2.72;1.40;;;;;;;19.17;41.28;101577.47;4639050;30;20444;-56
2023/12/03 11:13:43;;;;;;;2.97;1.63;;;;;;;19.21;40.87;101570.91;4631237;30;20064;-64
2023/12/03 11:16:15;;;;;;;2.60;1.45;;;;;;;19.24;40.81;101561.75;4636377;30;20411;-59
2023/12/03 11:19:17;;;;;;;3.83;1.63;;;;;;;19.27;40.19;101566.91;4636468;30;20081;-59
2023/12/03 11:22:16;;;;;;;3.00;1.50;;;;;;;19.26;39.92;101566.03;4615938;30;20071;-64
2023/12/03 11:25:14;;;;;;;4.65;1.80;;;;;;;19.27;40.42;101574.94;4637516;30;20130;-61
2023/12/03 11:27:45;;;;;;;3.13;1.65;;;;;;;19.23;40.59;101568.94;4634004;30;20051;-61
2023/12/03 11:30:34;;;;;;;4.15;1.83;;;;;;;19.22;40.41;101567.22;4635791;30;20060;-61